sensor_id;sensor_type;location;lat;lon;timestamp;temperature;humidity
4453;DHT22;2239;48.152;11.584;2023-04-01T00:00:52;8.50;99.90
4453;DHT22;2239;48.152;11.584;2023-04-01T00:03:18;8.50;99.90
4453;DHT22;2239;48.152;11.584;2023-04-01T00:05:44;8.40;99.90
4453;DHT22;2239;48.152;11.584;2023-04-01T00:08:10;8.40;99.90
4453;DHT22;2239;48.152;11.584;2023-04-01T00:10:36;8.30;99.90
4453;DHT22;2239;48.152;11.584;2023-04-01T00:13:02;8.30;99.90
4453;DHT22;2239;48.152;11.584;2023-04-01T00:15:28;8.30;99.90
4453;DHT22;2239;48.152;11.584;2023-04-01T00:17:53;8.30;99.90
4453;DHT22;2239;48.152;11.584;2023-04-01T00:20:19;8.30;99.90
4453;DHT22;2239;48.152;11.584;2023-04-01T00:22:45;8.20;99.90
4453;DHT22;2239;48.152;11.584;2023-04-01T00:25:11;8.20;99.90
4453;DHT22;2239;48.152;11.584;2023-04-01T00:27:37;8.20;99.90
4453;DHT22;2239;48.152;11.584;2023-04-01T00:30:03;8.20;99.90
4453;DHT22;2239;48.152;11.584;2023-04-01T00:32:28;8.20;99.90
4453;DHT22;2239;48.152;11.584;2023-04-01T00:34:54;8.20;99.90
4453;DHT22;2239;48.152;11.584;2023-04-01T00:37:20;8.20;99.90
4453;DHT22;2239;48.152;11.584;2023-04-01T00:39:46;8.20;99.90
4453;DHT22;2239;48.152;11.584;2023-04-01T00:42:12;8.20;99.90
4453;DHT22;2239;48.152;11.584;2023-04-01T00:44:39;8.10;99.90
4453;DHT22;2239;48.152;11.584;2023-04-01T00:47:05;8.20;99.90
4453;DHT22;2239;48.152;11.584;2023-04-01T00:49:33;8.10;99.90
4453;DHT22;2239;48.152;11.584;2023-04-01T00:52:01;8.10;99.90
4453;DHT22;2239;48.152;11.584;2023-04-01T00:54:30;8.10;99.90
4453;DHT22;2239;48.152;11.584;2023-04-01T00:56:59;8.10;99.90
4453;DHT22;2239;48.152;11.584;2023-04-01T00:59:47;8.10;99.90
4453;DHT22;2239;48.152;11.584;2023-04-01T01:02:14;8.10;99.90
4453;DHT22;2239;48.152;11.584;2023-04-01T01:04:41;8.10;99.90
4453;DHT22;2239;48.152;11.584;2023-04-01T01:07:28;8.10;99.90
4453;DHT22;2239;48.152;11.584;2023-04-01T01:10:09;8.20;99.90
4453;DHT22;2239;48.152;11.584;2023-04-01T01:20:32;8.20;99.90
4453;DHT22;2239;48.152;11.584;2023-04-01T01:23:23;8.20;99.90
4453;DHT22;2239;48.152;11.584;2023-04-01T01:37:30;8.30;99.90
4453;DHT22;2239;48.152;11.584;2023-04-01T01:40:00;8.30;99.90
4453;DHT22;2239;48.152;11.584;2023-04-01T01:42:27;8.30;99.90
4453;DHT22;2239;48.152;11.584;2023-04-01T01:44:55;8.30;99.90
4453;DHT22;2239;48.152;11.584;2023-04-01T01:47:22;8.20;99.90
4453;DHT22;2239;48.152;11.584;2023-04-01T01:49:49;8.20;99.90
4453;DHT22;2239;48.152;11.584;2023-04-01T01:52:17;8.20;99.90
4453;DHT22;2239;48.152;11.584;2023-04-01T01:54:48;8.20;99.90
4453;DHT22;2239;48.152;11.584;2023-04-01T01:57:14;8.20;99.90
4453;DHT22;2239;48.152;11.584;2023-04-01T01:59:43;8.20;99.90
4453;DHT22;2239;48.152;11.584;2023-04-01T02:02:10;8.20;99.90
4453;DHT22;2239;48.152;11.584;2023-04-01T02:04:41;8.30;99.90
4453;DHT22;2239;48.152;11.584;2023-04-01T02:07:22;8.30;99.90
4453;DHT22;2239;48.152;11.584;2023-04-01T02:09:49;8.30;99.90
4453;DHT22;2239;48.152;11.584;2023-04-01T02:12:16;8.30;99.90
4453;DHT22;2239;48.152;11.584;2023-04-01T02:14:46;8.30;99.90
4453;DHT22;2239;48.152;11.584;2023-04-01T02:17:19;8.20;99.90
4453;DHT22;2239;48.152;11.584;2023-04-01T02:19:57;8.20;99.90
4453;DHT22;2239;48.152;11.584;2023-04-01T02:22:33;8.30;99.90
4453;DHT22;2239;48.152;11.584;2023-04-01T02:25:07;8.20;99.90
4453;DHT22;2239;48.152;11.584;2023-04-01T02:27:33;8.20;99.90
4453;DHT22;2239;48.152;11.584;2023-04-01T02:29:59;8.30;99.90
4453;DHT22;2239;48.152;11.584;2023-04-01T02:32:25;8.20;99.90
4453;DHT22;2239;48.152;11.584;2023-04-01T02:34:52;8.20;99.90
4453;DHT22;2239;48.152;11.584;2023-04-01T02:37:17;8.20;99.90
4453;DHT22;2239;48.152;11.584;2023-04-01T02:39:43;8.20;99.90
4453;DHT22;2239;48.152;11.584;2023-04-01T02:42:09;8.20;99.90
4453;DHT22;2239;48.152;11.584;2023-04-01T02:44:35;8.20;99.90
4453;DHT22;2239;48.152;11.584;2023-04-01T02:47:00;8.20;99.90
4453;DHT22;2239;48.152;11.584;2023-04-01T02:49:26;8.20;99.90
4453;DHT22;2239;48.152;11.584;2023-04-01T02:51:52;8.20;99.90
4453;DHT22;2239;48.152;11.584;2023-04-01T02:54:18;8.20;99.90
4453;DHT22;2239;48.152;11.584;2023-04-01T02:56:44;8.20;99.90
4453;DHT22;2239;48.152;11.584;2023-04-01T02:59:10;8.20;99.90
4453;DHT22;2239;48.152;11.584;2023-04-01T03:01:36;8.20;99.90
4453;DHT22;2239;48.152;11.584;2023-04-01T03:04:02;8.20;99.90
4453;DHT22;2239;48.152;11.584;2023-04-01T03:06:27;8.20;99.90
4453;DHT22;2239;48.152;11.584;2023-04-01T03:08:53;8.20;99.90
4453;DHT22;2239;48.152;11.584;2023-04-01T03:11:18;8.20;99.90
4453;DHT22;2239;48.152;11.584;2023-04-01T03:13:45;8.10;99.90
4453;DHT22;2239;48.152;11.584;2023-04-01T03:16:11;8.10;99.90
4453;DHT22;2239;48.152;11.584;2023-04-01T03:18:36;8.10;99.90
4453;DHT22;2239;48.152;11.584;2023-04-01T03:21:16;8.10;99.90
4453;DHT22;2239;48.152;11.584;2023-04-01T03:23:42;8.10;99.90
4453;DHT22;2239;48.152;11.584;2023-04-01T03:26:08;8.10;99.90
4453;DHT22;2239;48.152;11.584;2023-04-01T03:28:33;8.10;99.90
4453;DHT22;2239;48.152;11.584;2023-04-01T03:30:59;8.10;99.90
4453;DHT22;2239;48.152;11.584;2023-04-01T03:33:24;8.10;99.90
4453;DHT22;2239;48.152;11.584;2023-04-01T03:35:50;8.00;99.90
4453;DHT22;2239;48.152;11.584;2023-04-01T03:38:17;8.00;99.90
4453;DHT22;2239;48.152;11.584;2023-04-01T03:40:43;7.90;99.90
4453;DHT22;2239;48.152;11.584;2023-04-01T03:43:09;7.90;99.90
4453;DHT22;2239;48.152;11.584;2023-04-01T03:45:35;7.90;99.90
4453;DHT22;2239;48.152;11.584;2023-04-01T03:48:01;7.90;99.90
4453;DHT22;2239;48.152;11.584;2023-04-01T03:50:27;7.80;99.90
4453;DHT22;2239;48.152;11.584;2023-04-01T03:52:52;7.80;99.90
4453;DHT22;2239;48.152;11.584;2023-04-01T03:55:19;7.80;99.90
4453;DHT22;2239;48.152;11.584;2023-04-01T03:57:44;7.80;99.90
4453;DHT22;2239;48.152;11.584;2023-04-01T04:00:10;7.80;99.90
4453;DHT22;2239;48.152;11.584;2023-04-01T04:02:36;7.80;99.90
4453;DHT22;2239;48.152;11.584;2023-04-01T04:05:02;7.70;99.90
4453;DHT22;2239;48.152;11.584;2023-04-01T04:07:27;7.70;99.90
4453;DHT22;2239;48.152;11.584;2023-04-01T04:09:53;7.70;99.90
4453;DHT22;2239;48.152;11.584;2023-04-01T04:12:19;7.70;99.90
4453;DHT22;2239;48.152;11.584;2023-04-01T04:14:44;7.70;99.90
4453;DHT22;2239;48.152;11.584;2023-04-01T04:17:11;7.70;99.90
4453;DHT22;2239;48.152;11.584;2023-04-01T04:19:41;7.70;99.90
4453;DHT22;2239;48.152;11.584;2023-04-01T04:22:07;7.70;99.90
4453;DHT22;2239;48.152;11.584;2023-04-01T04:24:35;7.70;99.90
4453;DHT22;2239;48.152;11.584;2023-04-01T04:27:01;7.70;99.90
4453;DHT22;2239;48.152;11.584;2023-04-01T04:29:27;7.70;99.90
4453;DHT22;2239;48.152;11.584;2023-04-01T04:31:53;7.70;99.90
4453;DHT22;2239;48.152;11.584;2023-04-01T04:34:18;7.70;99.90
4453;DHT22;2239;48.152;11.584;2023-04-01T04:36:44;7.70;99.90
4453;DHT22;2239;48.152;11.584;2023-04-01T04:39:10;7.70;99.90
4453;DHT22;2239;48.152;11.584;2023-04-01T04:41:37;7.70;99.90
4453;DHT22;2239;48.152;11.584;2023-04-01T04:44:03;7.80;99.90
4453;DHT22;2239;48.152;11.584;2023-04-01T04:46:29;7.80;99.90
4453;DHT22;2239;48.152;11.584;2023-04-01T04:48:54;7.80;99.90
4453;DHT22;2239;48.152;11.584;2023-04-01T04:51:21;7.80;99.90
4453;DHT22;2239;48.152;11.584;2023-04-01T04:53:47;7.80;99.90
4453;DHT22;2239;48.152;11.584;2023-04-01T04:56:16;7.90;99.90
4453;DHT22;2239;48.152;11.584;2023-04-01T04:58:42;7.90;99.90
4453;DHT22;2239;48.152;11.584;2023-04-01T05:01:09;7.90;99.90
4453;DHT22;2239;48.152;11.584;2023-04-01T05:03:36;7.90;99.90
4453;DHT22;2239;48.152;11.584;2023-04-01T05:06:02;8.00;99.90
4453;DHT22;2239;48.152;11.584;2023-04-01T05:08:27;8.00;99.90
4453;DHT22;2239;48.152;11.584;2023-04-01T05:10:53;8.00;99.90
4453;DHT22;2239;48.152;11.584;2023-04-01T05:13:19;8.00;99.90
4453;DHT22;2239;48.152;11.584;2023-04-01T05:15:45;8.00;99.90
4453;DHT22;2239;48.152;11.584;2023-04-01T05:18:10;8.10;99.90
4453;DHT22;2239;48.152;11.584;2023-04-01T05:20:36;8.10;99.90
4453;DHT22;2239;48.152;11.584;2023-04-01T05:23:03;8.10;99.90
4453;DHT22;2239;48.152;11.584;2023-04-01T05:25:28;8.10;99.90
4453;DHT22;2239;48.152;11.584;2023-04-01T05:27:54;8.10;99.90
4453;DHT22;2239;48.152;11.584;2023-04-01T05:30:19;8.10;99.90
4453;DHT22;2239;48.152;11.584;2023-04-01T05:32:45;8.20;99.90
4453;DHT22;2239;48.152;11.584;2023-04-01T05:35:11;8.20;99.90
4453;DHT22;2239;48.152;11.584;2023-04-01T05:37:37;8.30;99.90
4453;DHT22;2239;48.152;11.584;2023-04-01T05:40:03;8.30;99.90
4453;DHT22;2239;48.152;11.584;2023-04-01T05:42:29;8.40;99.90
4453;DHT22;2239;48.152;11.584;2023-04-01T05:44:55;8.40;99.90
4453;DHT22;2239;48.152;11.584;2023-04-01T05:47:21;8.40;99.90
4453;DHT22;2239;48.152;11.584;2023-04-01T05:49:46;8.50;99.90
4453;DHT22;2239;48.152;11.584;2023-04-01T05:52:12;8.50;99.90
4453;DHT22;2239;48.152;11.584;2023-04-01T05:54:38;8.50;99.90
4453;DHT22;2239;48.152;11.584;2023-04-01T05:57:03;8.60;99.90
4453;DHT22;2239;48.152;11.584;2023-04-01T05:59:29;8.60;99.90
4453;DHT22;2239;48.152;11.584;2023-04-01T06:01:56;8.70;99.90
4453;DHT22;2239;48.152;11.584;2023-04-01T06:04:22;8.70;99.90
4453;DHT22;2239;48.152;11.584;2023-04-01T06:06:48;8.70;99.90
4453;DHT22;2239;48.152;11.584;2023-04-01T06:09:16;8.80;99.90
4453;DHT22;2239;48.152;11.584;2023-04-01T06:15:00;8.80;99.90
4453;DHT22;2239;48.152;11.584;2023-04-01T06:31:20;9.00;99.90
4453;DHT22;2239;48.152;11.584;2023-04-01T06:34:13;9.10;99.90
4453;DHT22;2239;48.152;11.584;2023-04-01T06:42:34;9.30;99.90
4453;DHT22;2239;48.152;11.584;2023-04-01T06:50:48;9.30;99.90
4453;DHT22;2239;48.152;11.584;2023-04-01T06:53:21;9.40;99.90
4453;DHT22;2239;48.152;11.584;2023-04-01T06:55:57;9.50;99.90
4453;DHT22;2239;48.152;11.584;2023-04-01T06:58:29;9.60;99.80
4453;DHT22;2239;48.152;11.584;2023-04-01T07:00:59;9.70;99.80
4453;DHT22;2239;48.152;11.584;2023-04-01T07:03:40;9.80;99.40
4453;DHT22;2239;48.152;11.584;2023-04-01T07:06:14;9.80;99.00
4453;DHT22;2239;48.152;11.584;2023-04-01T07:08:43;9.90;98.70
4453;DHT22;2239;48.152;11.584;2023-04-01T07:11:15;9.90;98.50
4453;DHT22;2239;48.152;11.584;2023-04-01T07:13:52;9.90;98.70
4453;DHT22;2239;48.152;11.584;2023-04-01T07:16:43;9.80;98.70
4453;DHT22;2239;48.152;11.584;2023-04-01T07:19:32;9.80;98.60
4453;DHT22;2239;48.152;11.584;2023-04-01T07:24:50;9.80;99.00
4453;DHT22;2239;48.152;11.584;2023-04-01T07:27:17;10.00;98.30
4453;DHT22;2239;48.152;11.584;2023-04-01T07:29:42;10.20;97.90
4453;DHT22;2239;48.152;11.584;2023-04-01T07:35:38;10.50;96.90
4453;DHT22;2239;48.152;11.584;2023-04-01T07:40:55;10.80;96.40
4453;DHT22;2239;48.152;11.584;2023-04-01T07:43:30;11.00;96.40
4453;DHT22;2239;48.152;11.584;2023-04-01T07:48:48;11.50;95.80
4453;DHT22;2239;48.152;11.584;2023-04-01T07:51:40;11.60;95.20
4453;DHT22;2239;48.152;11.584;2023-04-01T07:54:24;11.40;94.90
4453;DHT22;2239;48.152;11.584;2023-04-01T07:59:53;11.10;95.70
4453;DHT22;2239;48.152;11.584;2023-04-01T08:05:29;11.00;95.50
4453;DHT22;2239;48.152;11.584;2023-04-01T08:16:26;10.70;95.70
4453;DHT22;2239;48.152;11.584;2023-04-01T08:19:03;10.70;95.60
4453;DHT22;2239;48.152;11.584;2023-04-01T08:21:41;10.80;95.60
4453;DHT22;2239;48.152;11.584;2023-04-01T08:24:20;11.00;95.50
4453;DHT22;2239;48.152;11.584;2023-04-01T08:26:51;11.10;95.00
4453;DHT22;2239;48.152;11.584;2023-04-01T08:29:25;11.20;94.80
4453;DHT22;2239;48.152;11.584;2023-04-01T08:31:56;11.30;94.60
4453;DHT22;2239;48.152;11.584;2023-04-01T08:34:40;11.20;94.30
4453;DHT22;2239;48.152;11.584;2023-04-01T08:37:34;11.30;94.30
4453;DHT22;2239;48.152;11.584;2023-04-01T08:40:30;11.70;94.10
4453;DHT22;2239;48.152;11.584;2023-04-01T08:46:17;11.80;93.20
4453;DHT22;2239;48.152;11.584;2023-04-01T08:54:57;11.70;93.30
4453;DHT22;2239;48.152;11.584;2023-04-01T08:57:42;11.80;93.40
4453;DHT22;2239;48.152;11.584;2023-04-01T09:15:03;12.50;91.80
4453;DHT22;2239;48.152;11.584;2023-04-01T09:23:38;13.40;90.70
4453;DHT22;2239;48.152;11.584;2023-04-01T09:46:20;12.40;90.70
4453;DHT22;2239;48.152;11.584;2023-04-01T10:03:28;13.30;88.20
4453;DHT22;2239;48.152;11.584;2023-04-01T10:17:46;12.60;88.70
4453;DHT22;2239;48.152;11.584;2023-04-01T10:20:34;12.50;89.60
4453;DHT22;2239;48.152;11.584;2023-04-01T10:23:18;12.50;90.10
4453;DHT22;2239;48.152;11.584;2023-04-01T10:31:36;12.60;89.10
4453;DHT22;2239;48.152;11.584;2023-04-01T10:37:49;12.70;90.00
4453;DHT22;2239;48.152;11.584;2023-04-01T10:49:10;12.30;90.10
4453;DHT22;2239;48.152;11.584;2023-04-01T11:07:06;12.10;93.00
4453;DHT22;2239;48.152;11.584;2023-04-01T11:15:25;11.90;96.80
4453;DHT22;2239;48.152;11.584;2023-04-01T11:18:23;11.80;96.30
4453;DHT22;2239;48.152;11.584;2023-04-01T11:29:20;12.10;96.00
4453;DHT22;2239;48.152;11.584;2023-04-01T11:32:02;12.20;95.00
4453;DHT22;2239;48.152;11.584;2023-04-01T11:34:51;12.20;95.10
4453;DHT22;2239;48.152;11.584;2023-04-01T11:40:42;12.00;95.40
4453;DHT22;2239;48.152;11.584;2023-04-01T11:43:18;11.90;96.30
4453;DHT22;2239;48.152;11.584;2023-04-01T11:46:02;11.70;96.20
4453;DHT22;2239;48.152;11.584;2023-04-01T11:48:50;11.60;96.00
4453;DHT22;2239;48.152;11.584;2023-04-01T11:56:47;11.20;98.10
4453;DHT22;2239;48.152;11.584;2023-04-01T12:05:13;10.70;99.90
4453;DHT22;2239;48.152;11.584;2023-04-01T12:13:16;10.10;99.90
4453;DHT22;2239;48.152;11.584;2023-04-01T12:18:40;9.70;99.90
4453;DHT22;2239;48.152;11.584;2023-04-01T12:35:02;9.80;99.90
4453;DHT22;2239;48.152;11.584;2023-04-01T12:37:36;9.70;99.90
4453;DHT22;2239;48.152;11.584;2023-04-01T12:43:34;9.50;99.90
4453;DHT22;2239;48.152;11.584;2023-04-01T13:07:16;9.50;99.90
4453;DHT22;2239;48.152;11.584;2023-04-01T13:10:00;9.50;99.90
4453;DHT22;2239;48.152;11.584;2023-04-01T13:15:28;9.40;99.90
4453;DHT22;2239;48.152;11.584;2023-04-01T13:18:16;9.40;99.90
4453;DHT22;2239;48.152;11.584;2023-04-01T13:21:34;9.50;99.90
4453;DHT22;2239;48.152;11.584;2023-04-01T13:24:51;9.50;99.90
4453;DHT22;2239;48.152;11.584;2023-04-01T13:30:23;9.50;99.90
4453;DHT22;2239;48.152;11.584;2023-04-01T13:32:43;9.50;99.90
4453;DHT22;2239;48.152;11.584;2023-04-01T13:38:39;9.40;99.90
4453;DHT22;2239;48.152;11.584;2023-04-01T13:44:06;9.40;99.90
4453;DHT22;2239;48.152;11.584;2023-04-01T14:00:56;9.40;99.90
4453;DHT22;2239;48.152;11.584;2023-04-01T14:12:02;9.70;99.90
4453;DHT22;2239;48.152;11.584;2023-04-01T14:14:54;9.70;99.90
4453;DHT22;2239;48.152;11.584;2023-04-01T14:26:29;9.60;99.90
4453;DHT22;2239;48.152;11.584;2023-04-01T14:31:42;9.70;99.90
4453;DHT22;2239;48.152;11.584;2023-04-01T14:34:53;9.70;99.90
4453;DHT22;2239;48.152;11.584;2023-04-01T14:37:19;9.70;99.90
4453;DHT22;2239;48.152;11.584;2023-04-01T14:43:27;9.80;99.90
4453;DHT22;2239;48.152;11.584;2023-04-01T14:51:28;9.90;99.90
4453;DHT22;2239;48.152;11.584;2023-04-01T14:56:44;9.90;99.90
4453;DHT22;2239;48.152;11.584;2023-04-01T14:59:26;9.80;99.90
4453;DHT22;2239;48.152;11.584;2023-04-01T15:18:47;9.80;99.90
4453;DHT22;2239;48.152;11.584;2023-04-01T15:21:18;9.80;99.90
4453;DHT22;2239;48.152;11.584;2023-04-01T15:23:57;9.70;99.90
4453;DHT22;2239;48.152;11.584;2023-04-01T15:26:31;9.70;99.90
4453;DHT22;2239;48.152;11.584;2023-04-01T15:34:49;9.80;99.90
4453;DHT22;2239;48.152;11.584;2023-04-01T15:42:47;10.10;99.90
4453;DHT22;2239;48.152;11.584;2023-04-01T15:51:11;10.10;99.90
4453;DHT22;2239;48.152;11.584;2023-04-01T15:54:15;10.10;99.90
4453;DHT22;2239;48.152;11.584;2023-04-01T16:00:02;10.10;99.90
4453;DHT22;2239;48.152;11.584;2023-04-01T16:02:41;10.10;99.90
4453;DHT22;2239;48.152;11.584;2023-04-01T16:08:19;10.20;99.90
4453;DHT22;2239;48.152;11.584;2023-04-01T16:21:58;10.20;99.90
4453;DHT22;2239;48.152;11.584;2023-04-01T16:41:16;10.20;99.40
4453;DHT22;2239;48.152;11.584;2023-04-01T16:43:49;10.20;99.70
4453;DHT22;2239;48.152;11.584;2023-04-01T16:46:38;10.20;99.60
4453;DHT22;2239;48.152;11.584;2023-04-01T17:00:37;10.00;99.10
4453;DHT22;2239;48.152;11.584;2023-04-01T17:02:52;10.00;99.20
4453;DHT22;2239;48.152;11.584;2023-04-01T17:05:20;10.00;99.00
4453;DHT22;2239;48.152;11.584;2023-04-01T17:08:11;9.90;99.10
4453;DHT22;2239;48.152;11.584;2023-04-01T17:10:50;9.90;99.30
4453;DHT22;2239;48.152;11.584;2023-04-01T17:13:27;9.90;99.20
4453;DHT22;2239;48.152;11.584;2023-04-01T17:21:10;9.80;99.30
4453;DHT22;2239;48.152;11.584;2023-04-01T17:35:17;9.80;99.70
4453;DHT22;2239;48.152;11.584;2023-04-01T17:38:01;9.80;99.60
4453;DHT22;2239;48.152;11.584;2023-04-01T17:46:01;9.70;99.30
4453;DHT22;2239;48.152;11.584;2023-04-01T17:48:44;9.70;99.30
4453;DHT22;2239;48.152;11.584;2023-04-01T17:54:21;9.70;99.40
4453;DHT22;2239;48.152;11.584;2023-04-01T17:57:32;9.70;99.30
4453;DHT22;2239;48.152;11.584;2023-04-01T18:03:21;9.70;99.20
4453;DHT22;2239;48.152;11.584;2023-04-01T18:05:27;9.70;99.30
4453;DHT22;2239;48.152;11.584;2023-04-01T18:14:04;9.70;99.10
4453;DHT22;2239;48.152;11.584;2023-04-01T18:27:44;9.70;99.60
4453;DHT22;2239;48.152;11.584;2023-04-01T18:41:14;9.60;99.90
4453;DHT22;2239;48.152;11.584;2023-04-01T18:43:58;9.60;99.90
4453;DHT22;2239;48.152;11.584;2023-04-01T18:46:30;9.50;99.90
4453;DHT22;2239;48.152;11.584;2023-04-01T18:49:21;9.50;99.90
4453;DHT22;2239;48.152;11.584;2023-04-01T18:51:55;9.50;99.90
4453;DHT22;2239;48.152;11.584;2023-04-01T18:54:42;9.40;99.90
4453;DHT22;2239;48.152;11.584;2023-04-01T18:57:15;9.40;99.90
4453;DHT22;2239;48.152;11.584;2023-04-01T19:05:11;9.40;99.90
4453;DHT22;2239;48.152;11.584;2023-04-01T19:07:48;9.40;99.90
4453;DHT22;2239;48.152;11.584;2023-04-01T19:20:59;9.30;99.90
4453;DHT22;2239;48.152;11.584;2023-04-01T19:26:35;9.30;99.90
4453;DHT22;2239;48.152;11.584;2023-04-01T19:37:54;9.10;99.90
4453;DHT22;2239;48.152;11.584;2023-04-01T19:54:32;9.10;99.90
4453;DHT22;2239;48.152;11.584;2023-04-01T20:04:54;8.90;99.90
4453;DHT22;2239;48.152;11.584;2023-04-01T20:15:34;8.80;99.90
4453;DHT22;2239;48.152;11.584;2023-04-01T20:18:03;8.70;99.90
4453;DHT22;2239;48.152;11.584;2023-04-01T20:20:31;8.70;99.90
4453;DHT22;2239;48.152;11.584;2023-04-01T20:23:23;8.70;99.90
4453;DHT22;2239;48.152;11.584;2023-04-01T20:25:58;8.70;99.90
4453;DHT22;2239;48.152;11.584;2023-04-01T20:29:23;8.70;99.90
4453;DHT22;2239;48.152;11.584;2023-04-01T20:31:26;8.60;99.90
4453;DHT22;2239;48.152;11.584;2023-04-01T20:34:17;8.60;99.90
4453;DHT22;2239;48.152;11.584;2023-04-01T20:37:10;8.60;99.90
4453;DHT22;2239;48.152;11.584;2023-04-01T20:39:57;8.60;99.90
4453;DHT22;2239;48.152;11.584;2023-04-01T20:45:30;8.60;99.90
4453;DHT22;2239;48.152;11.584;2023-04-01T20:48:29;8.60;99.90
4453;DHT22;2239;48.152;11.584;2023-04-01T20:51:22;8.60;99.90
4453;DHT22;2239;48.152;11.584;2023-04-01T20:56:57;8.60;99.90
4453;DHT22;2239;48.152;11.584;2023-04-01T21:11:07;8.60;99.90
4453;DHT22;2239;48.152;11.584;2023-04-01T21:13:56;8.60;99.90
4453;DHT22;2239;48.152;11.584;2023-04-01T21:19:17;8.60;99.90
4453;DHT22;2239;48.152;11.584;2023-04-01T21:30:27;8.60;99.90
4453;DHT22;2239;48.152;11.584;2023-04-01T21:33:23;8.60;99.90
4453;DHT22;2239;48.152;11.584;2023-04-01T21:36:01;8.60;99.90
4453;DHT22;2239;48.152;11.584;2023-04-01T21:44:20;8.60;99.90
4453;DHT22;2239;48.152;11.584;2023-04-01T21:47:08;8.60;99.90
4453;DHT22;2239;48.152;11.584;2023-04-01T21:49:49;8.60;99.90
4453;DHT22;2239;48.152;11.584;2023-04-01T21:55:08;8.60;99.90
4453;DHT22;2239;48.152;11.584;2023-04-01T22:00:48;8.60;99.90
4453;DHT22;2239;48.152;11.584;2023-04-01T22:06:00;8.60;99.90
4453;DHT22;2239;48.152;11.584;2023-04-01T22:08:50;8.60;99.90
4453;DHT22;2239;48.152;11.584;2023-04-01T22:11:21;8.60;99.90
4453;DHT22;2239;48.152;11.584;2023-04-01T22:14:05;8.60;99.90
4453;DHT22;2239;48.152;11.584;2023-04-01T22:24:56;8.60;99.90
4453;DHT22;2239;48.152;11.584;2023-04-01T22:27:46;8.60;99.90
4453;DHT22;2239;48.152;11.584;2023-04-01T22:30:39;8.60;99.90
4453;DHT22;2239;48.152;11.584;2023-04-01T22:36:05;8.60;99.90
4453;DHT22;2239;48.152;11.584;2023-04-01T22:38:44;8.60;99.90
4453;DHT22;2239;48.152;11.584;2023-04-01T22:44:00;8.60;99.90
4453;DHT22;2239;48.152;11.584;2023-04-01T22:52:34;8.60;99.90
4453;DHT22;2239;48.152;11.584;2023-04-01T22:55:00;8.60;99.90
4453;DHT22;2239;48.152;11.584;2023-04-01T22:57:52;8.60;99.90
4453;DHT22;2239;48.152;11.584;2023-04-01T23:00:30;8.60;99.90
4453;DHT22;2239;48.152;11.584;2023-04-01T23:03:05;8.60;99.90
4453;DHT22;2239;48.152;11.584;2023-04-01T23:05:34;8.60;99.90
4453;DHT22;2239;48.152;11.584;2023-04-01T23:11:15;8.60;99.90
4453;DHT22;2239;48.152;11.584;2023-04-01T23:19:44;8.50;99.90
4453;DHT22;2239;48.152;11.584;2023-04-01T23:27:35;8.60;99.90
4453;DHT22;2239;48.152;11.584;2023-04-01T23:30:03;8.60;99.90
4453;DHT22;2239;48.152;11.584;2023-04-01T23:32:29;8.60;99.90
4453;DHT22;2239;48.152;11.584;2023-04-01T23:34:57;8.50;99.90
4453;DHT22;2239;48.152;11.584;2023-04-01T23:37:24;8.50;99.90
4453;DHT22;2239;48.152;11.584;2023-04-01T23:39:54;8.50;99.90
4453;DHT22;2239;48.152;11.584;2023-04-01T23:42:29;8.50;99.90
4453;DHT22;2239;48.152;11.584;2023-04-01T23:44:58;8.50;99.90
4453;DHT22;2239;48.152;11.584;2023-04-01T23:47:29;8.50;99.90
4453;DHT22;2239;48.152;11.584;2023-04-01T23:50:01;8.50;99.90
4453;DHT22;2239;48.152;11.584;2023-04-01T23:52:31;8.50;99.90
4453;DHT22;2239;48.152;11.584;2023-04-01T23:55:23;8.50;99.90
